sensor_id;sensor_type;location;lat;lon;timestamp;P1;durP1;ratioP1;P2;durP2;ratioP2
72427;SDS011;60419;48.880;18.036;2022-08-07T00:00:28;6.30;;;4.55;;
72427;SDS011;60419;48.880;18.036;2022-08-07T00:03:14;5.70;;;4.30;;
72427;SDS011;60419;48.880;18.036;2022-08-07T00:06:00;7.47;;;4.20;;
72427;SDS011;60419;48.880;18.036;2022-08-07T00:08:45;8.07;;;4.10;;
72427;SDS011;60419;48.880;18.036;2022-08-07T00:11:31;7.25;;;4.22;;
72427;SDS011;60419;48.880;18.036;2022-08-07T00:14:16;4.82;;;3.30;;
72427;SDS011;60419;48.880;18.036;2022-08-07T00:17:02;5.45;;;3.95;;
72427;SDS011;60419;48.880;18.036;2022-08-07T00:19:49;5.15;;;4.10;;
72427;SDS011;60419;48.880;18.036;2022-08-07T00:22:34;7.55;;;4.05;;
72427;SDS011;60419;48.880;18.036;2022-08-07T00:25:19;5.18;;;3.78;;
72427;SDS011;60419;48.880;18.036;2022-08-07T00:28:05;5.30;;;3.63;;
72427;SDS011;60419;48.880;18.036;2022-08-07T00:30:50;8.40;;;3.45;;
72427;SDS011;60419;48.880;18.036;2022-08-07T00:33:36;5.53;;;3.38;;
72427;SDS011;60419;48.880;18.036;2022-08-07T00:36:23;5.25;;;3.17;;
72427;SDS011;60419;48.880;18.036;2022-08-07T00:39:08;3.65;;;2.97;;
72427;SDS011;60419;48.880;18.036;2022-08-07T00:41:55;6.15;;;3.22;;
72427;SDS011;60419;48.880;18.036;2022-08-07T00:44:42;3.40;;;2.47;;
72427;SDS011;60419;48.880;18.036;2022-08-07T00:47:27;3.13;;;2.20;;
72427;SDS011;60419;48.880;18.036;2022-08-07T00:50:12;4.53;;;2.70;;
72427;SDS011;60419;48.880;18.036;2022-08-07T00:52:58;3.40;;;2.50;;
72427;SDS011;60419;48.880;18.036;2022-08-07T00:55:44;4.00;;;2.80;;
72427;SDS011;60419;48.880;18.036;2022-08-07T00:58:29;4.05;;;2.70;;
72427;SDS011;60419;48.880;18.036;2022-08-07T01:01:16;5.88;;;2.08;;
72427;SDS011;60419;48.880;18.036;2022-08-07T01:04:04;3.20;;;2.25;;
72427;SDS011;60419;48.880;18.036;2022-08-07T01:06:51;5.93;;;2.60;;
72427;SDS011;60419;48.880;18.036;2022-08-07T01:09:36;4.72;;;2.70;;
72427;SDS011;60419;48.880;18.036;2022-08-07T01:12:22;4.75;;;2.70;;
72427;SDS011;60419;48.880;18.036;2022-08-07T01:15:08;7.63;;;2.50;;
72427;SDS011;60419;48.880;18.036;2022-08-07T01:17:53;5.32;;;2.20;;
72427;SDS011;60419;48.880;18.036;2022-08-07T01:20:41;4.28;;;2.35;;
72427;SDS011;60419;48.880;18.036;2022-08-07T01:23:29;3.38;;;2.05;;
72427;SDS011;60419;48.880;18.036;2022-08-07T01:26:17;5.15;;;2.10;;
72427;SDS011;60419;48.880;18.036;2022-08-07T01:29:04;7.50;;;2.50;;
72427;SDS011;60419;48.880;18.036;2022-08-07T01:31:50;2.80;;;1.80;;
72427;SDS011;60419;48.880;18.036;2022-08-07T01:34:36;5.07;;;2.30;;
72427;SDS011;60419;48.880;18.036;2022-08-07T01:37:22;3.17;;;2.00;;
72427;SDS011;60419;48.880;18.036;2022-08-07T01:40:08;5.05;;;2.35;;
72427;SDS011;60419;48.880;18.036;2022-08-07T01:42:54;3.47;;;1.95;;
72427;SDS011;60419;48.880;18.036;2022-08-07T01:45:40;3.88;;;1.95;;
72427;SDS011;60419;48.880;18.036;2022-08-07T01:48:26;4.38;;;2.00;;
72427;SDS011;60419;48.880;18.036;2022-08-07T01:51:13;3.90;;;1.90;;
72427;SDS011;60419;48.880;18.036;2022-08-07T01:54:06;3.50;;;1.83;;
72427;SDS011;60419;48.880;18.036;2022-08-07T01:56:53;3.17;;;1.83;;
72427;SDS011;60419;48.880;18.036;2022-08-07T01:59:50;3.55;;;2.00;;
72427;SDS011;60419;48.880;18.036;2022-08-07T02:02:52;2.88;;;1.80;;
72427;SDS011;60419;48.880;18.036;2022-08-07T02:05:43;3.95;;;1.67;;
72427;SDS011;60419;48.880;18.036;2022-08-07T02:08:37;4.07;;;1.92;;
72427;SDS011;60419;48.880;18.036;2022-08-07T02:11:25;3.08;;;1.67;;
72427;SDS011;60419;48.880;18.036;2022-08-07T02:14:10;3.47;;;1.77;;
72427;SDS011;60419;48.880;18.036;2022-08-07T02:16:57;5.20;;;2.20;;
72427;SDS011;60419;48.880;18.036;2022-08-07T02:19:44;3.40;;;1.63;;
72427;SDS011;60419;48.880;18.036;2022-08-07T02:22:32;3.00;;;2.00;;
72427;SDS011;60419;48.880;18.036;2022-08-07T02:25:21;3.47;;;1.80;;
72427;SDS011;60419;48.880;18.036;2022-08-07T02:28:08;3.63;;;1.90;;
72427;SDS011;60419;48.880;18.036;2022-08-07T02:30:55;2.78;;;1.65;;
72427;SDS011;60419;48.880;18.036;2022-08-07T02:33:42;4.05;;;1.90;;
72427;SDS011;60419;48.880;18.036;2022-08-07T02:36:29;3.08;;;1.80;;
72427;SDS011;60419;48.880;18.036;2022-08-07T02:39:17;4.28;;;2.10;;
72427;SDS011;60419;48.880;18.036;2022-08-07T02:42:04;3.00;;;1.83;;
72427;SDS011;60419;48.880;18.036;2022-08-07T02:44:51;3.55;;;1.80;;
72427;SDS011;60419;48.880;18.036;2022-08-07T02:47:37;4.03;;;1.88;;
72427;SDS011;60419;48.880;18.036;2022-08-07T02:50:23;4.00;;;1.70;;
72427;SDS011;60419;48.880;18.036;2022-08-07T02:53:10;5.07;;;2.10;;
72427;SDS011;60419;48.880;18.036;2022-08-07T02:55:59;3.45;;;1.95;;
72427;SDS011;60419;48.880;18.036;2022-08-07T02:58:48;3.10;;;1.80;;
72427;SDS011;60419;48.880;18.036;2022-08-07T03:01:36;3.45;;;2.03;;
72427;SDS011;60419;48.880;18.036;2022-08-07T03:04:23;3.33;;;1.73;;
72427;SDS011;60419;48.880;18.036;2022-08-07T03:07:10;3.50;;;2.08;;
72427;SDS011;60419;48.880;18.036;2022-08-07T03:09:57;3.13;;;1.70;;
72427;SDS011;60419;48.880;18.036;2022-08-07T03:12:44;3.80;;;1.92;;
72427;SDS011;60419;48.880;18.036;2022-08-07T03:15:30;3.95;;;1.92;;
72427;SDS011;60419;48.880;18.036;2022-08-07T03:18:16;3.92;;;1.95;;
72427;SDS011;60419;48.880;18.036;2022-08-07T03:21:03;4.65;;;1.38;;
72427;SDS011;60419;48.880;18.036;2022-08-07T03:23:50;3.40;;;1.90;;
72427;SDS011;60419;48.880;18.036;2022-08-07T03:26:39;3.83;;;1.90;;
72427;SDS011;60419;48.880;18.036;2022-08-07T03:29:27;2.28;;;1.50;;
72427;SDS011;60419;48.880;18.036;2022-08-07T03:32:20;4.68;;;2.00;;
72427;SDS011;60419;48.880;18.036;2022-08-07T03:35:10;4.32;;;2.53;;
72427;SDS011;60419;48.880;18.036;2022-08-07T03:37:58;4.00;;;1.80;;
72427;SDS011;60419;48.880;18.036;2022-08-07T03:40:48;3.60;;;2.10;;
72427;SDS011;60419;48.880;18.036;2022-08-07T03:43:35;3.80;;;1.88;;
72427;SDS011;60419;48.880;18.036;2022-08-07T03:46:22;3.15;;;1.73;;
72427;SDS011;60419;48.880;18.036;2022-08-07T03:49:09;4.45;;;2.65;;
72427;SDS011;60419;48.880;18.036;2022-08-07T03:51:56;3.90;;;1.80;;
72427;SDS011;60419;48.880;18.036;2022-08-07T03:54:42;4.57;;;1.83;;
72427;SDS011;60419;48.880;18.036;2022-08-07T03:57:28;3.03;;;1.80;;
72427;SDS011;60419;48.880;18.036;2022-08-07T04:00:15;4.93;;;2.60;;
72427;SDS011;60419;48.880;18.036;2022-08-07T04:03:02;2.75;;;1.90;;
72427;SDS011;60419;48.880;18.036;2022-08-07T04:05:49;5.20;;;1.75;;
72427;SDS011;60419;48.880;18.036;2022-08-07T04:08:34;3.83;;;1.85;;
72427;SDS011;60419;48.880;18.036;2022-08-07T04:11:21;4.63;;;2.00;;
72427;SDS011;60419;48.880;18.036;2022-08-07T04:14:07;3.75;;;1.67;;
72427;SDS011;60419;48.880;18.036;2022-08-07T04:16:52;5.25;;;1.60;;
72427;SDS011;60419;48.880;18.036;2022-08-07T04:19:41;2.97;;;1.50;;
72427;SDS011;60419;48.880;18.036;2022-08-07T04:22:27;2.38;;;1.67;;
72427;SDS011;60419;48.880;18.036;2022-08-07T04:25:13;5.15;;;2.08;;
72427;SDS011;60419;48.880;18.036;2022-08-07T04:27:59;3.97;;;1.70;;
72427;SDS011;60419;48.880;18.036;2022-08-07T04:30:47;4.97;;;1.67;;
72427;SDS011;60419;48.880;18.036;2022-08-07T04:33:34;3.75;;;1.77;;
72427;SDS011;60419;48.880;18.036;2022-08-07T04:36:21;4.65;;;2.08;;
72427;SDS011;60419;48.880;18.036;2022-08-07T04:39:06;4.97;;;1.70;;
72427;SDS011;60419;48.880;18.036;2022-08-07T04:41:53;3.53;;;1.75;;
72427;SDS011;60419;48.880;18.036;2022-08-07T04:44:38;3.33;;;1.70;;
72427;SDS011;60419;48.880;18.036;2022-08-07T04:47:33;2.60;;;1.65;;
72427;SDS011;60419;48.880;18.036;2022-08-07T04:50:29;5.38;;;1.95;;
72427;SDS011;60419;48.880;18.036;2022-08-07T04:53:45;3.67;;;1.95;;
72427;SDS011;60419;48.880;18.036;2022-08-07T04:56:49;3.58;;;1.83;;
72427;SDS011;60419;48.880;18.036;2022-08-07T05:05:42;2.28;;;1.20;;
72427;SDS011;60419;48.880;18.036;2022-08-07T05:08:47;4.87;;;1.47;;
72427;SDS011;60419;48.880;18.036;2022-08-07T05:11:49;2.45;;;1.40;;
72427;SDS011;60419;48.880;18.036;2022-08-07T05:14:39;3.38;;;1.58;;
72427;SDS011;60419;48.880;18.036;2022-08-07T05:17:27;4.90;;;1.50;;
72427;SDS011;60419;48.880;18.036;2022-08-07T05:20:16;2.97;;;1.48;;
72427;SDS011;60419;48.880;18.036;2022-08-07T05:23:18;3.80;;;1.58;;
72427;SDS011;60419;48.880;18.036;2022-08-07T05:26:09;3.22;;;1.48;;
72427;SDS011;60419;48.880;18.036;2022-08-07T05:28:59;5.05;;;1.58;;
72427;SDS011;60419;48.880;18.036;2022-08-07T05:31:47;4.65;;;1.50;;
72427;SDS011;60419;48.880;18.036;2022-08-07T05:34:34;3.42;;;1.30;;
72427;SDS011;60419;48.880;18.036;2022-08-07T05:37:20;4.90;;;1.63;;
72427;SDS011;60419;48.880;18.036;2022-08-07T05:40:07;3.70;;;1.73;;
72427;SDS011;60419;48.880;18.036;2022-08-07T05:42:54;2.83;;;1.50;;
72427;SDS011;60419;48.880;18.036;2022-08-07T05:45:41;3.78;;;1.25;;
72427;SDS011;60419;48.880;18.036;2022-08-07T05:48:30;3.65;;;1.30;;
72427;SDS011;60419;48.880;18.036;2022-08-07T05:51:15;2.72;;;1.40;;
72427;SDS011;60419;48.880;18.036;2022-08-07T05:54:03;2.67;;;1.25;;
72427;SDS011;60419;48.880;18.036;2022-08-07T05:56:48;2.70;;;1.30;;
72427;SDS011;60419;48.880;18.036;2022-08-07T05:59:36;3.53;;;1.13;;
72427;SDS011;60419;48.880;18.036;2022-08-07T06:02:24;3.60;;;1.25;;
72427;SDS011;60419;48.880;18.036;2022-08-07T06:05:13;2.25;;;1.40;;
72427;SDS011;60419;48.880;18.036;2022-08-07T06:07:59;2.50;;;1.02;;
72427;SDS011;60419;48.880;18.036;2022-08-07T06:10:46;4.57;;;1.25;;
72427;SDS011;60419;48.880;18.036;2022-08-07T06:13:31;2.90;;;1.20;;
72427;SDS011;60419;48.880;18.036;2022-08-07T06:16:17;3.15;;;1.20;;
72427;SDS011;60419;48.880;18.036;2022-08-07T06:19:06;2.22;;;1.40;;
72427;SDS011;60419;48.880;18.036;2022-08-07T06:21:52;3.22;;;1.15;;
72427;SDS011;60419;48.880;18.036;2022-08-07T06:24:39;3.97;;;1.30;;
72427;SDS011;60419;48.880;18.036;2022-08-07T06:27:24;3.00;;;1.27;;
72427;SDS011;60419;48.880;18.036;2022-08-07T06:30:10;2.45;;;1.40;;
72427;SDS011;60419;48.880;18.036;2022-08-07T06:32:56;2.08;;;1.45;;
72427;SDS011;60419;48.880;18.036;2022-08-07T06:35:41;2.72;;;1.42;;
72427;SDS011;60419;48.880;18.036;2022-08-07T06:38:27;2.03;;;1.10;;
72427;SDS011;60419;48.880;18.036;2022-08-07T06:41:23;3.28;;;1.30;;
72427;SDS011;60419;48.880;18.036;2022-08-07T06:44:12;2.70;;;1.20;;
72427;SDS011;60419;48.880;18.036;2022-08-07T06:47:00;2.63;;;1.30;;
72427;SDS011;60419;48.880;18.036;2022-08-07T06:49:45;2.28;;;1.35;;
72427;SDS011;60419;48.880;18.036;2022-08-07T06:52:32;3.95;;;1.40;;
72427;SDS011;60419;48.880;18.036;2022-08-07T06:55:28;3.00;;;1.40;;
72427;SDS011;60419;48.880;18.036;2022-08-07T06:58:15;3.13;;;1.40;;
72427;SDS011;60419;48.880;18.036;2022-08-07T07:01:08;3.10;;;1.60;;
72427;SDS011;60419;48.880;18.036;2022-08-07T07:03:55;5.60;;;1.50;;
72427;SDS011;60419;48.880;18.036;2022-08-07T07:06:41;4.57;;;1.45;;
72427;SDS011;60419;48.880;18.036;2022-08-07T07:09:29;2.42;;;1.30;;
72427;SDS011;60419;48.880;18.036;2022-08-07T07:15:25;2.78;;;1.25;;
72427;SDS011;60419;48.880;18.036;2022-08-07T07:21:16;2.03;;;1.10;;
72427;SDS011;60419;48.880;18.036;2022-08-07T07:24:06;2.05;;;1.25;;
72427;SDS011;60419;48.880;18.036;2022-08-07T07:26:54;3.85;;;1.73;;
72427;SDS011;60419;48.880;18.036;2022-08-07T07:29:44;3.10;;;1.60;;
72427;SDS011;60419;48.880;18.036;2022-08-07T07:32:33;2.67;;;1.40;;
72427;SDS011;60419;48.880;18.036;2022-08-07T07:35:22;4.03;;;1.52;;
72427;SDS011;60419;48.880;18.036;2022-08-07T07:38:08;4.80;;;1.45;;
72427;SDS011;60419;48.880;18.036;2022-08-07T07:40:59;4.18;;;1.70;;
72427;SDS011;60419;48.880;18.036;2022-08-07T07:43:49;2.55;;;1.50;;
72427;SDS011;60419;48.880;18.036;2022-08-07T07:46:36;2.90;;;1.40;;
72427;SDS011;60419;48.880;18.036;2022-08-07T07:49:25;2.38;;;1.30;;
72427;SDS011;60419;48.880;18.036;2022-08-07T07:52:13;3.80;;;1.20;;
72427;SDS011;60419;48.880;18.036;2022-08-07T07:55:01;4.05;;;1.30;;
72427;SDS011;60419;48.880;18.036;2022-08-07T07:57:48;11.60;;;1.50;;
72427;SDS011;60419;48.880;18.036;2022-08-07T08:00:35;3.45;;;1.40;;
72427;SDS011;60419;48.880;18.036;2022-08-07T08:03:21;3.63;;;1.38;;
72427;SDS011;60419;48.880;18.036;2022-08-07T08:06:08;3.03;;;1.50;;
72427;SDS011;60419;48.880;18.036;2022-08-07T08:08:54;2.08;;;1.20;;
72427;SDS011;60419;48.880;18.036;2022-08-07T08:11:42;3.53;;;1.30;;
72427;SDS011;60419;48.880;18.036;2022-08-07T08:14:27;2.33;;;1.23;;
72427;SDS011;60419;48.880;18.036;2022-08-07T08:17:13;4.90;;;1.25;;
72427;SDS011;60419;48.880;18.036;2022-08-07T08:20:01;3.42;;;1.40;;
72427;SDS011;60419;48.880;18.036;2022-08-07T08:22:49;3.42;;;1.10;;
72427;SDS011;60419;48.880;18.036;2022-08-07T08:25:55;4.50;;;1.20;;
72427;SDS011;60419;48.880;18.036;2022-08-07T08:29:11;1.85;;;1.13;;
72427;SDS011;60419;48.880;18.036;2022-08-07T08:32:01;2.85;;;1.50;;
72427;SDS011;60419;48.880;18.036;2022-08-07T08:34:49;1.55;;;1.02;;
72427;SDS011;60419;48.880;18.036;2022-08-07T08:37:36;4.00;;;1.40;;
72427;SDS011;60419;48.880;18.036;2022-08-07T08:40:32;1.80;;;1.20;;
72427;SDS011;60419;48.880;18.036;2022-08-07T08:43:37;2.10;;;1.30;;
72427;SDS011;60419;48.880;18.036;2022-08-07T08:46:35;3.22;;;1.30;;
72427;SDS011;60419;48.880;18.036;2022-08-07T08:49:32;2.22;;;1.20;;
72427;SDS011;60419;48.880;18.036;2022-08-07T08:53:11;2.78;;;1.13;;
72427;SDS011;60419;48.880;18.036;2022-08-07T08:56:16;2.83;;;1.30;;
72427;SDS011;60419;48.880;18.036;2022-08-07T08:59:07;2.60;;;1.50;;
72427;SDS011;60419;48.880;18.036;2022-08-07T09:02:04;3.95;;;1.30;;
72427;SDS011;60419;48.880;18.036;2022-08-07T09:04:59;3.05;;;1.40;;
72427;SDS011;60419;48.880;18.036;2022-08-07T09:08:10;2.38;;;1.40;;
72427;SDS011;60419;48.880;18.036;2022-08-07T09:11:14;2.60;;;1.20;;
72427;SDS011;60419;48.880;18.036;2022-08-07T09:14:18;3.28;;;1.20;;
72427;SDS011;60419;48.880;18.036;2022-08-07T09:23:16;4.15;;;1.35;;
72427;SDS011;60419;48.880;18.036;2022-08-07T09:26:48;2.85;;;1.15;;
72427;SDS011;60419;48.880;18.036;2022-08-07T09:32:54;2.40;;;1.20;;
72427;SDS011;60419;48.880;18.036;2022-08-07T09:35:50;5.57;;;1.20;;
72427;SDS011;60419;48.880;18.036;2022-08-07T09:38:44;3.00;;;1.25;;
72427;SDS011;60419;48.880;18.036;2022-08-07T09:53:49;3.22;;;1.23;;
72427;SDS011;60419;48.880;18.036;2022-08-07T09:59:32;2.42;;;1.10;;
72427;SDS011;60419;48.880;18.036;2022-08-07T10:18:06;3.42;;;1.40;;
72427;SDS011;60419;48.880;18.036;2022-08-07T10:27:15;3.72;;;1.20;;
72427;SDS011;60419;48.880;18.036;2022-08-07T10:39:32;2.13;;;1.40;;
72427;SDS011;60419;48.880;18.036;2022-08-07T10:42:45;1.75;;;1.10;;
72427;SDS011;60419;48.880;18.036;2022-08-07T10:45:41;3.80;;;1.20;;
72427;SDS011;60419;48.880;18.036;2022-08-07T10:54:41;3.72;;;1.42;;
72427;SDS011;60419;48.880;18.036;2022-08-07T11:00:21;2.10;;;1.10;;
72427;SDS011;60419;48.880;18.036;2022-08-07T11:03:14;2.40;;;1.40;;
72427;SDS011;60419;48.880;18.036;2022-08-07T11:06:10;3.03;;;1.30;;
72427;SDS011;60419;48.880;18.036;2022-08-07T11:09:06;3.40;;;1.40;;
72427;SDS011;60419;48.880;18.036;2022-08-07T11:12:09;4.07;;;1.30;;
72427;SDS011;60419;48.880;18.036;2022-08-07T11:15:08;2.53;;;1.80;;
72427;SDS011;60419;48.880;18.036;2022-08-07T11:17:59;2.88;;;1.38;;
72427;SDS011;60419;48.880;18.036;2022-08-07T11:21:06;4.35;;;1.60;;
72427;SDS011;60419;48.880;18.036;2022-08-07T11:24:08;2.38;;;1.23;;
72427;SDS011;60419;48.880;18.036;2022-08-07T11:27:02;2.78;;;1.30;;
72427;SDS011;60419;48.880;18.036;2022-08-07T11:30:03;2.50;;;1.38;;
72427;SDS011;60419;48.880;18.036;2022-08-07T11:33:07;3.78;;;1.40;;
72427;SDS011;60419;48.880;18.036;2022-08-07T11:45:12;4.47;;;1.30;;
72427;SDS011;60419;48.880;18.036;2022-08-07T12:08:56;2.83;;;1.42;;
72427;SDS011;60419;48.880;18.036;2022-08-07T12:15:32;3.80;;;1.40;;
72427;SDS011;60419;48.880;18.036;2022-08-07T12:18:24;2.38;;;1.45;;
72427;SDS011;60419;48.880;18.036;2022-08-07T12:21:27;3.75;;;1.60;;
72427;SDS011;60419;48.880;18.036;2022-08-07T12:24:24;2.72;;;1.50;;
72427;SDS011;60419;48.880;18.036;2022-08-07T12:27:17;1.45;;;1.27;;
72427;SDS011;60419;48.880;18.036;2022-08-07T12:30:04;3.72;;;1.77;;
72427;SDS011;60419;48.880;18.036;2022-08-07T12:32:53;2.75;;;1.67;;
72427;SDS011;60419;48.880;18.036;2022-08-07T12:35:46;2.67;;;1.60;;
72427;SDS011;60419;48.880;18.036;2022-08-07T12:38:34;4.80;;;2.67;;
72427;SDS011;60419;48.880;18.036;2022-08-07T12:41:20;4.07;;;2.13;;
72427;SDS011;60419;48.880;18.036;2022-08-07T12:44:12;3.40;;;1.60;;
72427;SDS011;60419;48.880;18.036;2022-08-07T12:49:53;3.08;;;1.80;;
72427;SDS011;60419;48.880;18.036;2022-08-07T12:52:50;3.45;;;1.67;;
72427;SDS011;60419;48.880;18.036;2022-08-07T12:55:50;3.95;;;1.50;;
72427;SDS011;60419;48.880;18.036;2022-08-07T12:58:45;3.13;;;1.60;;
72427;SDS011;60419;48.880;18.036;2022-08-07T13:01:37;3.92;;;1.77;;
72427;SDS011;60419;48.880;18.036;2022-08-07T13:04:40;3.78;;;1.95;;
72427;SDS011;60419;48.880;18.036;2022-08-07T13:10:59;3.45;;;1.80;;
72427;SDS011;60419;48.880;18.036;2022-08-07T13:14:14;3.65;;;1.60;;
72427;SDS011;60419;48.880;18.036;2022-08-07T13:23:27;2.90;;;1.70;;
72427;SDS011;60419;48.880;18.036;2022-08-07T13:26:25;3.75;;;1.77;;
72427;SDS011;60419;48.880;18.036;2022-08-07T13:29:33;3.15;;;1.60;;
72427;SDS011;60419;48.880;18.036;2022-08-07T13:32:29;3.63;;;1.60;;
72427;SDS011;60419;48.880;18.036;2022-08-07T13:35:40;3.72;;;1.67;;
72427;SDS011;60419;48.880;18.036;2022-08-07T13:38:40;3.90;;;1.85;;
72427;SDS011;60419;48.880;18.036;2022-08-07T13:41:51;4.05;;;1.63;;
72427;SDS011;60419;48.880;18.036;2022-08-07T13:44:38;2.88;;;1.45;;
72427;SDS011;60419;48.880;18.036;2022-08-07T13:47:27;3.58;;;1.80;;
72427;SDS011;60419;48.880;18.036;2022-08-07T13:50:14;2.53;;;1.45;;
72427;SDS011;60419;48.880;18.036;2022-08-07T13:53:04;4.55;;;1.70;;
72427;SDS011;60419;48.880;18.036;2022-08-07T13:55:50;3.42;;;1.50;;
72427;SDS011;60419;48.880;18.036;2022-08-07T13:58:38;3.80;;;1.70;;
72427;SDS011;60419;48.880;18.036;2022-08-07T14:01:47;4.00;;;1.88;;
72427;SDS011;60419;48.880;18.036;2022-08-07T14:07:28;3.03;;;1.73;;
72427;SDS011;60419;48.880;18.036;2022-08-07T14:10:16;3.75;;;1.85;;
72427;SDS011;60419;48.880;18.036;2022-08-07T14:13:02;4.70;;;2.33;;
72427;SDS011;60419;48.880;18.036;2022-08-07T14:15:51;2.75;;;1.60;;
72427;SDS011;60419;48.880;18.036;2022-08-07T14:18:49;4.53;;;1.83;;
72427;SDS011;60419;48.880;18.036;2022-08-07T14:21:41;5.43;;;1.98;;
72427;SDS011;60419;48.880;18.036;2022-08-07T14:24:30;3.35;;;1.70;;
72427;SDS011;60419;48.880;18.036;2022-08-07T14:27:25;2.60;;;1.80;;
72427;SDS011;60419;48.880;18.036;2022-08-07T14:30:13;3.88;;;1.63;;
72427;SDS011;60419;48.880;18.036;2022-08-07T14:33:00;2.80;;;1.42;;
72427;SDS011;60419;48.880;18.036;2022-08-07T14:35:52;2.42;;;1.55;;
72427;SDS011;60419;48.880;18.036;2022-08-07T14:38:39;3.08;;;1.60;;
72427;SDS011;60419;48.880;18.036;2022-08-07T14:41:27;4.18;;;1.60;;
72427;SDS011;60419;48.880;18.036;2022-08-07T14:44:16;2.70;;;1.65;;
72427;SDS011;60419;48.880;18.036;2022-08-07T14:47:04;3.83;;;1.70;;
72427;SDS011;60419;48.880;18.036;2022-08-07T14:49:51;4.05;;;1.75;;
72427;SDS011;60419;48.880;18.036;2022-08-07T14:52:38;3.88;;;1.70;;
72427;SDS011;60419;48.880;18.036;2022-08-07T14:55:31;3.35;;;1.60;;
72427;SDS011;60419;48.880;18.036;2022-08-07T14:58:20;5.85;;;1.60;;
72427;SDS011;60419;48.880;18.036;2022-08-07T15:01:10;6.90;;;1.90;;
72427;SDS011;60419;48.880;18.036;2022-08-07T15:04:02;3.67;;;1.70;;
72427;SDS011;60419;48.880;18.036;2022-08-07T15:09:39;3.45;;;1.60;;
72427;SDS011;60419;48.880;18.036;2022-08-07T15:15:44;4.03;;;1.38;;
72427;SDS011;60419;48.880;18.036;2022-08-07T15:18:36;3.17;;;1.88;;
72427;SDS011;60419;48.880;18.036;2022-08-07T15:21:33;2.70;;;1.52;;
72427;SDS011;60419;48.880;18.036;2022-08-07T15:24:28;3.15;;;1.80;;
72427;SDS011;60419;48.880;18.036;2022-08-07T15:27:18;3.47;;;1.50;;
72427;SDS011;60419;48.880;18.036;2022-08-07T15:30:08;3.35;;;1.70;;
72427;SDS011;60419;48.880;18.036;2022-08-07T15:32:55;2.27;;;1.50;;
72427;SDS011;60419;48.880;18.036;2022-08-07T15:35:42;3.13;;;1.70;;
72427;SDS011;60419;48.880;18.036;2022-08-07T15:38:35;2.67;;;1.70;;
72427;SDS011;60419;48.880;18.036;2022-08-07T15:41:23;4.07;;;1.70;;
72427;SDS011;60419;48.880;18.036;2022-08-07T15:44:11;2.95;;;1.88;;
72427;SDS011;60419;48.880;18.036;2022-08-07T15:47:02;1.98;;;1.33;;
72427;SDS011;60419;48.880;18.036;2022-08-07T15:49:51;4.07;;;1.60;;
72427;SDS011;60419;48.880;18.036;2022-08-07T15:52:38;3.38;;;1.65;;
72427;SDS011;60419;48.880;18.036;2022-08-07T15:55:24;5.35;;;1.70;;
72427;SDS011;60419;48.880;18.036;2022-08-07T15:58:11;5.35;;;1.90;;
72427;SDS011;60419;48.880;18.036;2022-08-07T16:01:01;3.17;;;1.80;;
72427;SDS011;60419;48.880;18.036;2022-08-07T16:03:53;3.55;;;1.70;;
72427;SDS011;60419;48.880;18.036;2022-08-07T16:06:47;3.25;;;1.73;;
72427;SDS011;60419;48.880;18.036;2022-08-07T16:09:40;3.80;;;1.63;;
72427;SDS011;60419;48.880;18.036;2022-08-07T16:12:39;2.80;;;1.70;;
72427;SDS011;60419;48.880;18.036;2022-08-07T16:15:49;3.42;;;1.60;;
72427;SDS011;60419;48.880;18.036;2022-08-07T16:22:07;3.40;;;2.00;;
72427;SDS011;60419;48.880;18.036;2022-08-07T16:25:37;4.50;;;1.60;;
72427;SDS011;60419;48.880;18.036;2022-08-07T16:28:48;1.95;;;1.33;;
72427;SDS011;60419;48.880;18.036;2022-08-07T16:32:02;2.85;;;1.85;;
72427;SDS011;60419;48.880;18.036;2022-08-07T16:35:08;2.67;;;1.58;;
72427;SDS011;60419;48.880;18.036;2022-08-07T16:38:17;2.80;;;1.63;;
72427;SDS011;60419;48.880;18.036;2022-08-07T16:41:22;6.00;;;1.67;;
72427;SDS011;60419;48.880;18.036;2022-08-07T16:50:30;4.47;;;1.77;;
72427;SDS011;60419;48.880;18.036;2022-08-07T16:59:15;4.30;;;1.63;;
72427;SDS011;60419;48.880;18.036;2022-08-07T17:08:31;2.55;;;1.40;;
72427;SDS011;60419;48.880;18.036;2022-08-07T17:11:31;3.08;;;1.70;;
72427;SDS011;60419;48.880;18.036;2022-08-07T17:14:42;3.10;;;1.80;;
72427;SDS011;60419;48.880;18.036;2022-08-07T17:17:51;4.45;;;1.73;;
72427;SDS011;60419;48.880;18.036;2022-08-07T17:20:47;3.28;;;1.50;;
72427;SDS011;60419;48.880;18.036;2022-08-07T17:23:36;3.63;;;1.80;;
72427;SDS011;60419;48.880;18.036;2022-08-07T17:26:29;4.13;;;1.83;;
72427;SDS011;60419;48.880;18.036;2022-08-07T17:35:14;3.00;;;1.40;;
72427;SDS011;60419;48.880;18.036;2022-08-07T17:44:24;2.47;;;1.52;;
72427;SDS011;60419;48.880;18.036;2022-08-07T17:57:01;2.40;;;1.52;;
72427;SDS011;60419;48.880;18.036;2022-08-07T18:00:03;3.22;;;1.85;;
72427;SDS011;60419;48.880;18.036;2022-08-07T18:02:54;3.40;;;1.55;;
72427;SDS011;60419;48.880;18.036;2022-08-07T18:08:53;4.35;;;1.70;;
72427;SDS011;60419;48.880;18.036;2022-08-07T18:11:41;3.47;;;2.00;;
72427;SDS011;60419;48.880;18.036;2022-08-07T18:14:40;4.30;;;1.63;;
72427;SDS011;60419;48.880;18.036;2022-08-07T18:20:22;5.13;;;1.67;;
72427;SDS011;60419;48.880;18.036;2022-08-07T18:23:13;4.97;;;1.90;;
72427;SDS011;60419;48.880;18.036;2022-08-07T18:26:11;3.40;;;1.73;;
72427;SDS011;60419;48.880;18.036;2022-08-07T18:32:05;2.70;;;1.65;;
72427;SDS011;60419;48.880;18.036;2022-08-07T18:35:07;3.42;;;2.03;;
72427;SDS011;60419;48.880;18.036;2022-08-07T18:40:45;3.28;;;1.67;;
72427;SDS011;60419;48.880;18.036;2022-08-07T18:43:48;2.67;;;1.60;;
72427;SDS011;60419;48.880;18.036;2022-08-07T18:56:11;2.42;;;1.50;;
72427;SDS011;60419;48.880;18.036;2022-08-07T19:08:16;3.38;;;1.70;;
72427;SDS011;60419;48.880;18.036;2022-08-07T19:11:09;2.78;;;1.70;;
72427;SDS011;60419;48.880;18.036;2022-08-07T19:14:10;3.17;;;1.60;;
72427;SDS011;60419;48.880;18.036;2022-08-07T19:16:58;3.42;;;1.65;;
72427;SDS011;60419;48.880;18.036;2022-08-07T19:20:04;3.67;;;1.67;;
72427;SDS011;60419;48.880;18.036;2022-08-07T19:23:07;2.25;;;1.48;;
72427;SDS011;60419;48.880;18.036;2022-08-07T19:25:59;3.45;;;1.88;;
72427;SDS011;60419;48.880;18.036;2022-08-07T19:28:48;3.00;;;1.67;;
72427;SDS011;60419;48.880;18.036;2022-08-07T19:31:51;3.40;;;1.90;;
72427;SDS011;60419;48.880;18.036;2022-08-07T19:34:37;2.92;;;1.70;;
72427;SDS011;60419;48.880;18.036;2022-08-07T19:37:25;3.00;;;1.70;;
72427;SDS011;60419;48.880;18.036;2022-08-07T19:40:13;5.30;;;1.80;;
72427;SDS011;60419;48.880;18.036;2022-08-07T19:43:13;3.00;;;1.58;;
72427;SDS011;60419;48.880;18.036;2022-08-07T19:48:53;3.55;;;1.77;;
72427;SDS011;60419;48.880;18.036;2022-08-07T19:51:42;2.83;;;1.70;;
72427;SDS011;60419;48.880;18.036;2022-08-07T19:54:28;2.47;;;1.48;;
72427;SDS011;60419;48.880;18.036;2022-08-07T19:57:14;2.55;;;1.60;;
72427;SDS011;60419;48.880;18.036;2022-08-07T20:00:05;2.70;;;1.63;;
72427;SDS011;60419;48.880;18.036;2022-08-07T20:02:58;3.28;;;1.70;;
72427;SDS011;60419;48.880;18.036;2022-08-07T20:05:46;3.28;;;1.95;;
72427;SDS011;60419;48.880;18.036;2022-08-07T20:08:38;3.40;;;1.80;;
72427;SDS011;60419;48.880;18.036;2022-08-07T20:11:26;4.65;;;1.85;;
72427;SDS011;60419;48.880;18.036;2022-08-07T20:14:16;3.42;;;1.50;;
72427;SDS011;60419;48.880;18.036;2022-08-07T20:17:06;4.25;;;1.70;;
72427;SDS011;60419;48.880;18.036;2022-08-07T20:19:53;2.78;;;1.73;;
72427;SDS011;60419;48.880;18.036;2022-08-07T20:22:43;4.13;;;1.88;;
72427;SDS011;60419;48.880;18.036;2022-08-07T20:25:31;3.78;;;1.65;;